createdAt,value
2023-04-13T00:02:10.305Z,85.34
2023-04-13T00:05:18.826Z,85.21
2023-04-13T00:08:26.979Z,84.04
2023-04-13T00:11:35.169Z,84.35
2023-04-13T00:14:44.629Z,84.04
2023-04-13T00:17:54.041Z,84.75
2023-04-13T00:21:02.287Z,85.67
2023-04-13T00:24:10.685Z,85.79
2023-04-13T00:27:19.076Z,86.68
2023-04-13T00:30:29.062Z,85.77
2023-04-13T00:33:41.642Z,86.06
2023-04-13T00:36:50.532Z,86.44
2023-04-13T00:39:59.658Z,85.13
2023-04-13T00:43:09.167Z,83.93
2023-04-13T00:46:19.934Z,82.84
2023-04-13T00:49:30.059Z,83.26
2023-04-13T00:52:39.403Z,83.64
2023-04-13T00:55:48.650Z,84.20
2023-04-13T00:58:58.526Z,83.67
2023-04-13T01:02:08.315Z,84.04
2023-04-13T01:05:18.361Z,83.65
2023-04-13T01:08:36.817Z,83.63
2023-04-13T01:11:54.336Z,84.46
2023-04-13T01:15:11.244Z,83.90
2023-04-13T01:18:22.756Z,84.00
2023-04-13T01:21:36.115Z,84.09
2023-04-13T01:25:10.185Z,84.08
2023-04-13T01:28:23.200Z,84.23
2023-04-13T01:31:33.216Z,83.75
2023-04-13T01:34:42.123Z,84.12
2023-04-13T01:37:51.693Z,83.50
2023-04-13T01:41:01.569Z,83.64
2023-04-13T01:44:15.228Z,83.76
2023-04-13T01:47:26.897Z,83.44
2023-04-13T01:50:45.173Z,84.31
2023-04-13T01:54:11.060Z,83.16
2023-04-13T01:57:22.239Z,84.73
2023-04-13T02:00:36.306Z,84.02
2023-04-13T02:03:48.998Z,84.29
2023-04-13T02:06:57.353Z,83.69
2023-04-13T02:10:12.220Z,84.48
2023-04-13T02:13:20.605Z,84.54
2023-04-13T02:16:30.079Z,84.49
2023-04-13T02:19:38.458Z,83.90
2023-04-13T02:22:46.821Z,84.38
2023-04-13T02:25:56.086Z,84.79
2023-04-13T02:29:04.243Z,84.76
2023-04-13T02:32:14.541Z,85.34
2023-04-13T02:35:22.730Z,85.36
2023-04-13T02:38:31.826Z,84.30
2023-04-13T02:41:47.524Z,84.66
2023-04-13T02:45:00.653Z,85.10
2023-04-13T02:48:10.803Z,85.06
2023-04-13T02:51:19.994Z,84.69
2023-04-13T02:54:29.195Z,84.60
2023-04-13T02:57:38.109Z,84.33
2023-04-13T03:00:48.670Z,84.17
2023-04-13T03:04:04.389Z,84.63
2023-04-13T03:07:14.472Z,83.71
2023-04-13T03:10:26.885Z,83.55
2023-04-13T03:13:36.906Z,83.90
2023-04-13T03:16:45.231Z,83.83
2023-04-13T03:19:55.353Z,84.34
2023-04-13T03:23:05.861Z,83.10
2023-04-13T03:26:16.951Z,83.95
2023-04-13T03:29:25.649Z,83.35
2023-04-13T03:32:33.901Z,83.72
2023-04-13T03:35:44.084Z,84.20
2023-04-13T03:39:01.993Z,83.56
2023-04-13T03:42:15.877Z,83.48
2023-04-13T03:45:33.131Z,84.78
2023-04-13T03:48:44.985Z,84.57
2023-04-13T03:52:00.288Z,84.81
2023-04-13T03:55:14.100Z,84.11
2023-04-13T03:58:23.967Z,82.67
2023-04-13T04:01:33.606Z,83.75
2023-04-13T04:04:42.098Z,82.98
2023-04-13T04:07:52.253Z,82.51
2023-04-13T04:11:02.862Z,83.49
2023-04-13T04:14:11.705Z,82.42
2023-04-13T04:17:24.957Z,82.22
2023-04-13T04:20:33.267Z,82.19
2023-04-13T04:23:45.499Z,82.26
2023-04-13T04:26:55.122Z,82.42
2023-04-13T04:30:06.394Z,82.27
2023-04-13T04:33:17.827Z,82.26
2023-04-13T04:36:26.562Z,83.23
2023-04-13T04:39:44.447Z,83.23
2023-04-13T04:42:57.735Z,83.73
2023-04-13T04:46:16.204Z,83.63
2023-04-13T04:49:30.934Z,83.39
2023-04-13T04:52:40.427Z,83.91
2023-04-13T04:55:51.418Z,83.25
2023-04-13T04:59:14.227Z,82.74
2023-04-13T05:02:36.175Z,83.39
2023-04-13T05:05:47.686Z,83.51
2023-04-13T05:09:04.191Z,83.53
2023-04-13T05:12:15.483Z,82.71
2023-04-13T05:15:26.764Z,82.51
2023-04-13T05:18:46.156Z,83.28
2023-04-13T05:22:04.986Z,83.31
2023-04-13T05:25:20.392Z,82.62
2023-04-13T05:28:30.807Z,82.09
2023-04-13T05:31:39.461Z,81.74
2023-04-13T05:34:47.599Z,82.30
2023-04-13T05:38:03.306Z,81.60
2023-04-13T05:41:17.110Z,81.49
2023-04-13T05:44:26.697Z,81.35
2023-04-13T05:47:35.467Z,81.32
2023-04-13T05:50:51.458Z,80.60
2023-04-13T05:54:00.612Z,80.53
2023-04-13T05:57:09.343Z,80.53
2023-04-13T06:00:23.805Z,80.26
2023-04-13T06:03:42.264Z,79.72
2023-04-13T06:06:51.029Z,79.74
2023-04-13T06:10:00.747Z,78.86
2023-04-13T06:13:09.494Z,78.76
2023-04-13T06:16:19.861Z,78.54
2023-04-13T06:19:29.126Z,78.77
2023-04-13T06:22:37.920Z,78.74
2023-04-13T06:25:46.645Z,77.64
2023-04-13T06:28:59.106Z,76.95
2023-04-13T06:32:09.405Z,76.85
2023-04-13T06:35:18.481Z,77.01
2023-04-13T06:38:30.323Z,75.62
2023-04-13T06:41:43.365Z,75.93
2023-04-13T06:45:16.764Z,75.28
2023-04-13T06:48:27.092Z,72.80
2023-04-13T06:51:39.968Z,73.62
2023-04-13T06:54:48.465Z,71.90
2023-04-13T06:58:11.757Z,72.26
2023-04-13T07:01:20.783Z,71.72
2023-04-13T07:04:33.297Z,69.87
2023-04-13T07:07:44.670Z,71.10
2023-04-13T07:10:55.374Z,70.24
2023-04-13T07:14:11.043Z,69.13
2023-04-13T07:17:19.750Z,67.87
2023-04-13T07:20:29.545Z,67.73
2023-04-13T07:23:38.661Z,66.76
2023-04-13T07:26:46.879Z,65.80
2023-04-13T07:29:56.680Z,64.02
2023-04-13T07:33:10.169Z,63.94
2023-04-13T07:36:19.849Z,64.63
2023-04-13T07:39:32.432Z,61.50
2023-04-13T07:42:42.358Z,60.20
2023-04-13T07:45:52.729Z,59.68
2023-04-13T07:49:01.673Z,59.06
2023-04-13T07:52:21.385Z,59.19
2023-04-13T07:55:30.924Z,60.32
2023-04-13T07:58:39.968Z,60.04
2023-04-13T08:01:49.003Z,60.00
2023-04-13T08:04:57.687Z,59.44
2023-04-13T08:08:11.720Z,59.07
2023-04-13T08:11:20.588Z,59.73
2023-04-13T08:14:35.248Z,55.80
2023-04-13T08:17:43.521Z,55.99
2023-04-13T08:20:51.755Z,54.09
2023-04-13T08:24:03.301Z,53.73
2023-04-13T08:27:12.915Z,52.62
2023-04-13T08:30:22.646Z,53.79
2023-04-13T08:33:38.436Z,54.02
2023-04-13T08:36:47.694Z,56.25
2023-04-13T08:40:00.569Z,54.66
2023-04-13T08:43:09.326Z,54.96
2023-04-13T08:46:21.915Z,56.60
2023-04-13T08:49:34.045Z,52.41
2023-04-13T08:53:05.755Z,54.03
2023-04-13T08:56:17.224Z,50.79
2023-04-13T08:59:29.653Z,50.99
2023-04-13T09:02:52.409Z,49.24
2023-04-13T09:06:13.154Z,48.38
2023-04-13T09:09:22.576Z,50.33
2023-04-13T09:12:35.393Z,48.56
2023-04-13T09:15:47.282Z,49.92
2023-04-13T09:19:04.557Z,48.64
2023-04-13T09:22:15.439Z,46.33
2023-04-13T09:25:27.233Z,47.98
2023-04-13T09:28:53.694Z,46.40
2023-04-13T09:32:03.134Z,45.52
2023-04-13T09:35:13.163Z,46.28
2023-04-13T09:38:31.462Z,45.11
2023-04-13T09:41:46.544Z,45.99
2023-04-13T09:45:00.131Z,46.84
2023-04-13T09:48:20.360Z,47.26
2023-04-13T09:51:37.653Z,45.37
2023-04-13T09:54:50.774Z,46.86
2023-04-13T09:58:09.771Z,45.05
2023-04-13T10:01:19.506Z,44.84
2023-04-13T10:04:27.890Z,46.29
2023-04-13T10:07:38.096Z,44.27
2023-04-13T10:10:47.829Z,43.50
2023-04-13T10:14:02.780Z,45.76
2023-04-13T10:17:47.774Z,41.94
2023-04-13T10:20:59.085Z,44.23
2023-04-13T10:24:12.703Z,44.73
2023-04-13T10:27:24.130Z,45.33
2023-04-13T10:30:32.672Z,45.84
2023-04-13T10:33:52.416Z,44.04
2023-04-13T10:37:06.179Z,44.16
2023-04-13T10:40:16.312Z,43.38
2023-04-13T10:43:32.874Z,44.27
2023-04-13T10:46:52.082Z,43.17
2023-04-13T10:50:01.976Z,42.25
2023-04-13T10:53:10.567Z,42.94
2023-04-13T10:56:19.827Z,43.37
2023-04-13T10:59:55.415Z,43.27
2023-04-13T11:03:06.621Z,43.99
2023-04-13T11:06:16.622Z,45.22
2023-04-13T11:09:24.762Z,46.23
2023-04-13T11:12:33.066Z,44.98
2023-04-13T11:15:41.491Z,43.14
2023-04-13T11:18:49.786Z,43.46
2023-04-13T11:21:59.698Z,45.94
2023-04-13T11:25:10.660Z,45.50
2023-04-13T11:28:18.909Z,46.61
2023-04-13T11:31:38.921Z,48.45
2023-04-13T11:34:49.339Z,48.13
2023-04-13T11:37:59.631Z,46.55
2023-04-13T11:41:16.439Z,47.83
2023-04-13T11:44:25.575Z,47.48
2023-04-13T11:47:35.956Z,45.89
2023-04-13T11:50:44.889Z,46.75
2023-04-13T11:53:55.138Z,47.04
2023-04-13T11:57:03.476Z,47.55
2023-04-13T12:00:18.656Z,46.59
2023-04-13T12:03:38.481Z,48.54
2023-04-13T12:06:55.234Z,46.61
2023-04-13T12:10:08.368Z,47.17
2023-04-13T12:13:26.707Z,48.11
2023-04-13T12:20:04.645Z,48.44
2023-04-13T12:23:23.597Z,48.13
2023-04-13T12:29:48.952Z,50.08
2023-04-13T12:32:57.416Z,49.96
2023-04-13T12:36:06.902Z,50.04
2023-04-13T12:39:15.303Z,49.23
2023-04-13T12:42:25.363Z,50.59
2023-04-13T12:45:33.792Z,49.23
2023-04-13T12:48:42.199Z,47.25
2023-04-13T12:51:50.558Z,46.11
2023-04-13T12:54:59.089Z,45.43
2023-04-13T12:58:09.547Z,47.92
2023-04-13T13:01:18.130Z,47.77
2023-04-13T13:04:30.317Z,47.38
2023-04-13T13:07:38.631Z,47.74
2023-04-13T13:10:46.761Z,47.24
2023-04-13T13:13:56.528Z,48.12
2023-04-13T13:17:04.672Z,48.68
2023-04-13T13:20:14.447Z,46.51
2023-04-13T13:23:22.623Z,46.41
2023-04-13T13:26:44.891Z,46.77
2023-04-13T13:30:03.436Z,45.87
2023-04-13T13:33:12.613Z,46.61
2023-04-13T13:36:22.321Z,49.29
2023-04-13T13:39:30.495Z,52.35
2023-04-13T13:42:51.330Z,52.23
2023-04-13T13:46:02.237Z,52.45
2023-04-13T13:49:11.798Z,57.61
2023-04-13T13:52:33.603Z,57.77
2023-04-13T13:55:44.619Z,57.31
2023-04-13T13:58:52.786Z,57.53
2023-04-13T14:02:03.344Z,58.68
2023-04-13T14:05:14.054Z,59.96
2023-04-13T14:08:22.431Z,61.30
2023-04-13T14:11:31.383Z,57.78
2023-04-13T14:14:39.740Z,58.19
2023-04-13T14:18:02.402Z,56.06
2023-04-13T14:21:21.351Z,58.98
2023-04-13T14:24:29.457Z,57.17
2023-04-13T14:27:39.067Z,56.72
2023-04-13T14:30:47.434Z,56.50
2023-04-13T14:33:57.420Z,55.71
2023-04-13T14:37:06.487Z,55.50
2023-04-13T14:40:16.898Z,56.38
2023-04-13T14:43:25.393Z,56.92
2023-04-13T14:46:33.618Z,58.73
2023-04-13T14:49:43.258Z,59.26
2023-04-13T14:52:52.265Z,59.20
2023-04-13T14:56:00.926Z,59.82
2023-04-13T14:59:08.996Z,59.00
2023-04-13T15:02:17.524Z,59.89
2023-04-13T15:05:27.796Z,60.11
2023-04-13T15:08:36.533Z,60.33
2023-04-13T15:11:48.585Z,61.76
2023-04-13T15:14:57.252Z,61.52
2023-04-13T15:18:06.543Z,61.82
2023-04-13T15:21:16.247Z,62.83
2023-04-13T15:24:24.526Z,62.43
2023-04-13T15:27:33.087Z,62.56
2023-04-13T15:30:43.152Z,62.10
2023-04-13T15:33:51.818Z,61.70
2023-04-13T15:37:01.341Z,60.68
2023-04-13T15:40:11.189Z,60.76
2023-04-13T15:43:19.760Z,61.81
2023-04-13T15:46:28.695Z,60.54
2023-04-13T15:49:37.595Z,60.21
2023-04-13T15:52:47.813Z,61.56
2023-04-13T15:55:56.279Z,59.69
2023-04-13T15:59:04.782Z,60.73
2023-04-13T16:02:13.659Z,60.67
2023-04-13T16:05:22.594Z,61.17
2023-04-13T16:08:32.451Z,62.89
2023-04-13T16:11:42.149Z,64.40
2023-04-13T16:14:50.812Z,65.41
2023-04-13T16:17:58.996Z,65.69
2023-04-13T16:21:07.910Z,64.96
2023-04-13T16:24:19.083Z,66.05
2023-04-13T16:27:27.370Z,65.29
2023-04-13T16:30:35.568Z,64.61
2023-04-13T16:33:44.080Z,65.19
2023-04-13T16:36:53.236Z,64.94
2023-04-13T16:40:05.101Z,65.00
2023-04-13T16:43:13.461Z,66.18
2023-04-13T16:46:22.315Z,64.76
2023-04-13T16:49:31.897Z,65.58
2023-04-13T16:52:40.373Z,65.19
2023-04-13T16:55:53.377Z,65.41
2023-04-13T16:59:02.945Z,65.49
2023-04-13T17:02:24.649Z,66.52
2023-04-13T17:05:40.228Z,66.48
2023-04-13T17:08:49.060Z,67.35
2023-04-13T17:11:59.341Z,66.53
2023-04-13T17:15:10.146Z,65.67
2023-04-13T17:18:18.429Z,68.06
2023-04-13T17:21:27.342Z,67.62
2023-04-13T17:24:36.604Z,67.74
2023-04-13T17:27:46.416Z,67.43
2023-04-13T17:30:55.425Z,69.07
2023-04-13T17:34:03.826Z,68.99
2023-04-13T17:37:12.046Z,68.84
2023-04-13T17:40:20.979Z,69.01
2023-04-13T17:43:30.586Z,69.33
2023-04-13T17:46:38.971Z,69.17
2023-04-13T17:49:47.179Z,69.56
2023-04-13T17:52:55.442Z,69.87
2023-04-13T17:56:03.551Z,69.92
2023-04-13T17:59:18.029Z,68.79
2023-04-13T18:02:27.887Z,69.56
2023-04-13T18:05:36.606Z,68.92
2023-04-13T18:08:44.894Z,69.43
2023-04-13T18:11:53.406Z,69.35
2023-04-13T18:15:03.705Z,70.49
2023-04-13T18:18:11.961Z,70.97
2023-04-13T18:21:20.706Z,70.80
2023-04-13T18:24:29.605Z,71.30
2023-04-13T18:27:37.850Z,71.98
2023-04-13T18:30:47.596Z,72.25
2023-04-13T18:33:58.978Z,71.78
2023-04-13T18:37:07.699Z,71.29
2023-04-13T18:40:16.268Z,70.97
2023-04-13T18:43:24.439Z,70.08
2023-04-13T18:46:34.141Z,71.31
2023-04-13T18:49:42.369Z,71.17
2023-04-13T18:52:50.764Z,70.71
2023-04-13T18:56:00.076Z,70.08
2023-04-13T18:59:08.475Z,70.71
2023-04-13T19:02:18.222Z,71.03
2023-04-13T19:05:27.127Z,71.42
2023-04-13T19:08:35.431Z,72.25
2023-04-13T19:11:49.169Z,73.22
2023-04-13T19:14:57.778Z,72.30
2023-04-13T19:18:07.927Z,73.09
2023-04-13T19:21:18.403Z,73.58
2023-04-13T19:24:27.572Z,73.84
2023-04-13T19:27:35.934Z,74.68
2023-04-13T19:30:44.273Z,74.03
2023-04-13T19:33:54.382Z,74.74
2023-04-13T19:37:02.527Z,75.18
2023-04-13T19:40:13.851Z,76.35
2023-04-13T19:43:24.899Z,76.01
2023-04-13T19:46:33.599Z,76.81
2023-04-13T19:49:43.318Z,77.04
2023-04-13T19:52:53.076Z,77.50
2023-04-13T19:56:01.440Z,76.24
2023-04-13T19:59:09.541Z,76.52
2023-04-13T20:02:17.979Z,76.42
2023-04-13T20:05:27.766Z,76.44
2023-04-13T20:08:43.362Z,77.80
2023-04-13T20:11:51.525Z,77.95
2023-04-13T20:14:59.735Z,77.93
2023-04-13T20:18:08.553Z,78.18
2023-04-13T20:21:18.370Z,78.71
2023-04-13T20:24:26.753Z,78.83
2023-04-13T20:27:37.759Z,78.38
2023-04-13T20:30:46.166Z,78.61
2023-04-13T20:33:55.024Z,79.16
2023-04-13T20:37:09.766Z,79.39
2023-04-13T20:40:18.780Z,78.83
2023-04-13T20:43:27.892Z,79.38
2023-04-13T20:46:36.451Z,80.20
2023-04-13T20:49:49.799Z,79.08
2023-04-13T20:53:00.806Z,79.15
2023-04-13T20:56:09.399Z,79.23
2023-04-13T20:59:19.354Z,79.67
2023-04-13T21:02:28.696Z,79.96
2023-04-13T21:05:37.216Z,79.36
2023-04-13T21:08:47.044Z,80.46
2023-04-13T21:11:56.677Z,79.84
2023-04-13T21:15:05.611Z,80.82
2023-04-13T21:18:14.144Z,80.91
2023-04-13T21:21:24.920Z,80.49
2023-04-13T21:24:34.999Z,80.24
2023-04-13T21:27:43.493Z,80.58
2023-04-13T21:30:51.738Z,79.99
2023-04-13T21:34:00.746Z,81.61
2023-04-13T21:37:09.305Z,82.61
2023-04-13T21:40:19.104Z,81.63
2023-04-13T21:43:27.672Z,81.73
2023-04-13T21:46:37.055Z,82.11
2023-04-13T21:49:45.744Z,82.11
2023-04-13T21:52:53.923Z,81.69
2023-04-13T21:56:04.032Z,81.74
2023-04-13T21:59:12.229Z,82.13
2023-04-13T22:02:20.393Z,82.57
2023-04-13T22:05:28.636Z,82.73
2023-04-13T22:08:36.797Z,83.68
2023-04-13T22:11:46.240Z,82.96
2023-04-13T22:14:54.654Z,82.98
2023-04-13T22:18:02.877Z,83.36
2023-04-13T22:21:11.102Z,83.34
2023-04-13T22:24:19.201Z,83.54
2023-04-13T22:27:28.744Z,82.15
2023-04-13T22:30:36.963Z,82.76
2023-04-13T22:33:45.249Z,83.31
2023-04-13T22:36:54.045Z,82.83
2023-04-13T22:40:02.925Z,83.30
2023-04-13T22:43:12.921Z,82.82
2023-04-13T22:46:21.566Z,83.61
2023-04-13T22:49:30.646Z,83.46
2023-04-13T22:52:39.009Z,83.55
2023-04-13T22:55:47.378Z,82.89
2023-04-13T22:58:56.877Z,83.74
2023-04-13T23:02:06.013Z,83.71
2023-04-13T23:05:14.689Z,82.40
2023-04-13T23:08:22.921Z,82.79
2023-04-13T23:11:31.190Z,82.55
2023-04-13T23:14:41.057Z,83.63
2023-04-13T23:17:49.216Z,83.88
2023-04-13T23:20:57.588Z,83.72
2023-04-13T23:24:06.123Z,83.14
2023-04-13T23:27:14.396Z,83.93
2023-04-13T23:30:24.131Z,83.29
2023-04-13T23:33:32.729Z,83.68
2023-04-13T23:36:41.331Z,84.91
2023-04-13T23:39:49.624Z,85.05
2023-04-13T23:42:57.724Z,84.48
2023-04-13T23:46:07.588Z,84.74
2023-04-13T23:49:15.743Z,84.37
2023-04-13T23:52:23.945Z,84.26
2023-04-13T23:55:32.100Z,83.87
2023-04-13T23:58:40.381Z,83.25
